sensor_id;sensor_type;location;lat;lon;timestamp;P1;durP1;ratioP1;P2;durP2;ratioP2
10939;SDS011;5522;42.696;23.494;2023-09-07T00:00:37;5.00;;;4.60;;
10939;SDS011;5522;42.696;23.494;2023-09-07T00:03:09;4.40;;;4.00;;
10939;SDS011;5522;42.696;23.494;2023-09-07T00:05:36;4.68;;;4.28;;
10939;SDS011;5522;42.696;23.494;2023-09-07T00:08:04;7.82;;;4.38;;
10939;SDS011;5522;42.696;23.494;2023-09-07T00:10:31;4.78;;;4.40;;
10939;SDS011;5522;42.696;23.494;2023-09-07T00:13:00;3.70;;;3.50;;
10939;SDS011;5522;42.696;23.494;2023-09-07T00:15:27;4.80;;;4.25;;
10939;SDS011;5522;42.696;23.494;2023-09-07T00:17:54;4.15;;;3.78;;
10939;SDS011;5522;42.696;23.494;2023-09-07T00:22:58;5.78;;;4.68;;
10939;SDS011;5522;42.696;23.494;2023-09-07T00:25:26;4.80;;;4.40;;
10939;SDS011;5522;42.696;23.494;2023-09-07T00:27:53;7.75;;;5.13;;
10939;SDS011;5522;42.696;23.494;2023-09-07T00:30:19;5.35;;;4.95;;
10939;SDS011;5522;42.696;23.494;2023-09-07T00:32:46;5.07;;;4.38;;
10939;SDS011;5522;42.696;23.494;2023-09-07T00:35:13;8.05;;;5.30;;
10939;SDS011;5522;42.696;23.494;2023-09-07T00:37:40;4.93;;;4.47;;
10939;SDS011;5522;42.696;23.494;2023-09-07T00:40:09;5.82;;;4.60;;
10939;SDS011;5522;42.696;23.494;2023-09-07T00:42:36;6.20;;;5.70;;
10939;SDS011;5522;42.696;23.494;2023-09-07T00:45:03;9.40;;;5.43;;
10939;SDS011;5522;42.696;23.494;2023-09-07T00:47:31;6.82;;;5.95;;
10939;SDS011;5522;42.696;23.494;2023-09-07T00:50:00;5.82;;;5.03;;
10939;SDS011;5522;42.696;23.494;2023-09-07T00:52:29;6.60;;;5.75;;
10939;SDS011;5522;42.696;23.494;2023-09-07T00:54:57;5.72;;;5.30;;
10939;SDS011;5522;42.696;23.494;2023-09-07T00:57:26;6.85;;;6.25;;
10939;SDS011;5522;42.696;23.494;2023-09-07T00:59:53;6.25;;;5.85;;
10939;SDS011;5522;42.696;23.494;2023-09-07T01:07:32;6.80;;;6.25;;
10939;SDS011;5522;42.696;23.494;2023-09-07T01:10:02;9.75;;;7.10;;
10939;SDS011;5522;42.696;23.494;2023-09-07T01:12:31;7.60;;;6.78;;
10939;SDS011;5522;42.696;23.494;2023-09-07T01:14:57;6.95;;;6.47;;
10939;SDS011;5522;42.696;23.494;2023-09-07T01:17:24;8.20;;;6.47;;
10939;SDS011;5522;42.696;23.494;2023-09-07T01:19:52;7.95;;;7.10;;
10939;SDS011;5522;42.696;23.494;2023-09-07T01:22:21;11.02;;;8.00;;
10939;SDS011;5522;42.696;23.494;2023-09-07T01:24:49;7.50;;;6.90;;
10939;SDS011;5522;42.696;23.494;2023-09-07T01:27:17;7.63;;;7.13;;
10939;SDS011;5522;42.696;23.494;2023-09-07T01:29:44;7.68;;;7.07;;
10939;SDS011;5522;42.696;23.494;2023-09-07T01:32:11;8.70;;;7.82;;
10939;SDS011;5522;42.696;23.494;2023-09-07T01:34:38;7.85;;;7.15;;
10939;SDS011;5522;42.696;23.494;2023-09-07T01:37:05;9.18;;;8.27;;
10939;SDS011;5522;42.696;23.494;2023-09-07T01:39:33;8.30;;;7.22;;
10939;SDS011;5522;42.696;23.494;2023-09-07T01:42:00;7.40;;;6.75;;
10939;SDS011;5522;42.696;23.494;2023-09-07T01:44:27;8.73;;;7.95;;
10939;SDS011;5522;42.696;23.494;2023-09-07T01:46:55;8.90;;;7.82;;
10939;SDS011;5522;42.696;23.494;2023-09-07T01:49:21;10.85;;;8.63;;
10939;SDS011;5522;42.696;23.494;2023-09-07T01:51:50;10.10;;;8.05;;
10939;SDS011;5522;42.696;23.494;2023-09-07T01:54:17;9.10;;;8.35;;
10939;SDS011;5522;42.696;23.494;2023-09-07T01:56:46;10.00;;;8.88;;
10939;SDS011;5522;42.696;23.494;2023-09-07T01:59:12;9.60;;;8.63;;
10939;SDS011;5522;42.696;23.494;2023-09-07T02:01:39;9.30;;;8.40;;
10939;SDS011;5522;42.696;23.494;2023-09-07T02:04:06;9.20;;;8.50;;
10939;SDS011;5522;42.696;23.494;2023-09-07T02:06:33;9.27;;;8.40;;
10939;SDS011;5522;42.696;23.494;2023-09-07T02:09:00;9.30;;;8.50;;
10939;SDS011;5522;42.696;23.494;2023-09-07T02:11:27;9.20;;;8.40;;
10939;SDS011;5522;42.696;23.494;2023-09-07T02:13:55;9.27;;;8.48;;
10939;SDS011;5522;42.696;23.494;2023-09-07T02:16:22;9.40;;;8.48;;
10939;SDS011;5522;42.696;23.494;2023-09-07T02:18:49;9.55;;;8.30;;
10939;SDS011;5522;42.696;23.494;2023-09-07T02:21:16;9.52;;;8.82;;
10939;SDS011;5522;42.696;23.494;2023-09-07T02:23:43;10.25;;;9.13;;
10939;SDS011;5522;42.696;23.494;2023-09-07T02:26:10;9.43;;;8.52;;
10939;SDS011;5522;42.696;23.494;2023-09-07T02:28:37;10.88;;;8.40;;
10939;SDS011;5522;42.696;23.494;2023-09-07T02:31:05;10.57;;;9.63;;
10939;SDS011;5522;42.696;23.494;2023-09-07T02:33:33;9.27;;;8.43;;
10939;SDS011;5522;42.696;23.494;2023-09-07T02:36:00;10.10;;;8.68;;
10939;SDS011;5522;42.696;23.494;2023-09-07T02:38:27;10.70;;;9.80;;
10939;SDS011;5522;42.696;23.494;2023-09-07T02:40:55;11.30;;;10.10;;
10939;SDS011;5522;42.696;23.494;2023-09-07T02:43:22;10.77;;;9.43;;
10939;SDS011;5522;42.696;23.494;2023-09-07T02:45:49;9.15;;;8.35;;
10939;SDS011;5522;42.696;23.494;2023-09-07T02:48:18;8.63;;;7.78;;
10939;SDS011;5522;42.696;23.494;2023-09-07T02:53:29;8.93;;;8.10;;
10939;SDS011;5522;42.696;23.494;2023-09-07T02:55:56;10.23;;;9.32;;
10939;SDS011;5522;42.696;23.494;2023-09-07T02:58:23;10.40;;;9.38;;
10939;SDS011;5522;42.696;23.494;2023-09-07T03:00:50;10.10;;;9.10;;
10939;SDS011;5522;42.696;23.494;2023-09-07T03:03:19;9.75;;;8.95;;
10939;SDS011;5522;42.696;23.494;2023-09-07T03:05:46;10.80;;;9.82;;
10939;SDS011;5522;42.696;23.494;2023-09-07T03:08:12;10.00;;;9.10;;
10939;SDS011;5522;42.696;23.494;2023-09-07T03:10:39;10.48;;;9.57;;
10939;SDS011;5522;42.696;23.494;2023-09-07T03:13:07;10.82;;;9.93;;
10939;SDS011;5522;42.696;23.494;2023-09-07T03:15:34;11.20;;;10.15;;
10939;SDS011;5522;42.696;23.494;2023-09-07T03:18:01;12.02;;;10.93;;
10939;SDS011;5522;42.696;23.494;2023-09-07T03:20:30;12.57;;;11.30;;
10939;SDS011;5522;42.696;23.494;2023-09-07T03:22:59;10.45;;;9.52;;
10939;SDS011;5522;42.696;23.494;2023-09-07T03:25:27;10.55;;;9.65;;
10939;SDS011;5522;42.696;23.494;2023-09-07T03:27:53;12.05;;;10.82;;
10939;SDS011;5522;42.696;23.494;2023-09-07T03:30:20;12.23;;;11.05;;
10939;SDS011;5522;42.696;23.494;2023-09-07T03:32:47;11.70;;;10.60;;
10939;SDS011;5522;42.696;23.494;2023-09-07T03:35:14;10.82;;;9.85;;
10939;SDS011;5522;42.696;23.494;2023-09-07T03:37:43;11.35;;;10.30;;
10939;SDS011;5522;42.696;23.494;2023-09-07T03:40:10;10.93;;;10.02;;
10939;SDS011;5522;42.696;23.494;2023-09-07T03:42:37;12.90;;;10.80;;
10939;SDS011;5522;42.696;23.494;2023-09-07T03:45:04;10.50;;;9.63;;
10939;SDS011;5522;42.696;23.494;2023-09-07T03:47:32;10.02;;;9.13;;
10939;SDS011;5522;42.696;23.494;2023-09-07T03:49:59;9.73;;;8.82;;
10939;SDS011;5522;42.696;23.494;2023-09-07T03:52:26;9.90;;;8.98;;
10939;SDS011;5522;42.696;23.494;2023-09-07T03:54:54;11.73;;;9.77;;
10939;SDS011;5522;42.696;23.494;2023-09-07T03:57:22;10.38;;;9.50;;
10939;SDS011;5522;42.696;23.494;2023-09-07T03:59:49;10.15;;;9.35;;
10939;SDS011;5522;42.696;23.494;2023-09-07T04:02:16;13.60;;;9.32;;
10939;SDS011;5522;42.696;23.494;2023-09-07T04:04:43;11.32;;;10.18;;
10939;SDS011;5522;42.696;23.494;2023-09-07T04:07:14;10.90;;;9.90;;
10939;SDS011;5522;42.696;23.494;2023-09-07T04:09:41;11.93;;;9.85;;
10939;SDS011;5522;42.696;23.494;2023-09-07T04:12:10;11.18;;;10.20;;
10939;SDS011;5522;42.696;23.494;2023-09-07T04:14:36;12.05;;;10.77;;
10939;SDS011;5522;42.696;23.494;2023-09-07T04:17:03;11.43;;;10.40;;
10939;SDS011;5522;42.696;23.494;2023-09-07T04:19:30;11.00;;;10.10;;
10939;SDS011;5522;42.696;23.494;2023-09-07T04:21:58;10.95;;;9.77;;
10939;SDS011;5522;42.696;23.494;2023-09-07T04:24:24;12.55;;;9.98;;
10939;SDS011;5522;42.696;23.494;2023-09-07T04:26:52;11.25;;;10.15;;
10939;SDS011;5522;42.696;23.494;2023-09-07T04:29:20;11.05;;;9.95;;
10939;SDS011;5522;42.696;23.494;2023-09-07T04:31:47;11.23;;;9.52;;
10939;SDS011;5522;42.696;23.494;2023-09-07T04:34:14;10.10;;;9.23;;
10939;SDS011;5522;42.696;23.494;2023-09-07T04:36:40;12.07;;;9.90;;
10939;SDS011;5522;42.696;23.494;2023-09-07T04:39:07;9.68;;;8.77;;
10939;SDS011;5522;42.696;23.494;2023-09-07T04:41:34;11.32;;;9.40;;
10939;SDS011;5522;42.696;23.494;2023-09-07T04:44:01;10.93;;;9.60;;
10939;SDS011;5522;42.696;23.494;2023-09-07T04:46:29;10.93;;;9.85;;
10939;SDS011;5522;42.696;23.494;2023-09-07T04:48:56;11.20;;;10.05;;
10939;SDS011;5522;42.696;23.494;2023-09-07T04:51:23;11.40;;;9.82;;
10939;SDS011;5522;42.696;23.494;2023-09-07T04:53:51;13.90;;;9.63;;
10939;SDS011;5522;42.696;23.494;2023-09-07T04:56:18;13.68;;;10.77;;
10939;SDS011;5522;42.696;23.494;2023-09-07T04:58:45;11.95;;;9.75;;
10939;SDS011;5522;42.696;23.494;2023-09-07T05:01:12;12.73;;;9.70;;
10939;SDS011;5522;42.696;23.494;2023-09-07T05:03:40;10.63;;;9.57;;
10939;SDS011;5522;42.696;23.494;2023-09-07T05:06:07;11.70;;;8.65;;
10939;SDS011;5522;42.696;23.494;2023-09-07T05:08:34;9.82;;;8.95;;
10939;SDS011;5522;42.696;23.494;2023-09-07T05:11:01;10.77;;;9.68;;
10939;SDS011;5522;42.696;23.494;2023-09-07T05:13:30;12.32;;;9.38;;
10939;SDS011;5522;42.696;23.494;2023-09-07T05:15:58;10.95;;;8.90;;
10939;SDS011;5522;42.696;23.494;2023-09-07T05:18:26;9.05;;;8.20;;
10939;SDS011;5522;42.696;23.494;2023-09-07T05:20:54;8.88;;;8.18;;
10939;SDS011;5522;42.696;23.494;2023-09-07T05:23:21;9.85;;;7.90;;
10939;SDS011;5522;42.696;23.494;2023-09-07T05:25:50;9.35;;;8.18;;
10939;SDS011;5522;42.696;23.494;2023-09-07T05:28:18;8.77;;;8.05;;
10939;SDS011;5522;42.696;23.494;2023-09-07T05:30:46;8.55;;;7.72;;
10939;SDS011;5522;42.696;23.494;2023-09-07T05:33:14;10.45;;;8.75;;
10939;SDS011;5522;42.696;23.494;2023-09-07T05:35:42;12.50;;;8.20;;
10939;SDS011;5522;42.696;23.494;2023-09-07T05:38:12;9.70;;;8.40;;
10939;SDS011;5522;42.696;23.494;2023-09-07T05:40:39;8.15;;;7.40;;
10939;SDS011;5522;42.696;23.494;2023-09-07T05:43:10;7.55;;;6.75;;
10939;SDS011;5522;42.696;23.494;2023-09-07T05:45:38;6.00;;;5.10;;
10939;SDS011;5522;42.696;23.494;2023-09-07T05:48:06;6.43;;;5.00;;
10939;SDS011;5522;42.696;23.494;2023-09-07T05:50:34;6.25;;;5.65;;
10939;SDS011;5522;42.696;23.494;2023-09-07T05:53:03;4.57;;;4.05;;
10939;SDS011;5522;42.696;23.494;2023-09-07T05:55:31;5.03;;;4.05;;
10939;SDS011;5522;42.696;23.494;2023-09-07T05:57:58;4.53;;;4.22;;
10939;SDS011;5522;42.696;23.494;2023-09-07T06:00:25;4.13;;;3.70;;
10939;SDS011;5522;42.696;23.494;2023-09-07T06:02:52;4.78;;;4.47;;
10939;SDS011;5522;42.696;23.494;2023-09-07T06:05:19;9.38;;;3.00;;
10939;SDS011;5522;42.696;23.494;2023-09-07T06:07:46;2.70;;;2.60;;
10939;SDS011;5522;42.696;23.494;2023-09-07T06:10:13;4.72;;;3.28;;
10939;SDS011;5522;42.696;23.494;2023-09-07T06:12:41;6.70;;;2.85;;
10939;SDS011;5522;42.696;23.494;2023-09-07T06:15:08;3.13;;;2.72;;
10939;SDS011;5522;42.696;23.494;2023-09-07T06:17:35;2.95;;;2.85;;
10939;SDS011;5522;42.696;23.494;2023-09-07T06:20:02;3.45;;;2.38;;
10939;SDS011;5522;42.696;23.494;2023-09-07T06:22:31;4.75;;;2.78;;
10939;SDS011;5522;42.696;23.494;2023-09-07T06:24:57;2.67;;;2.58;;
10939;SDS011;5522;42.696;23.494;2023-09-07T06:27:24;4.95;;;2.65;;
10939;SDS011;5522;42.696;23.494;2023-09-07T06:29:51;3.00;;;2.90;;
10939;SDS011;5522;42.696;23.494;2023-09-07T06:32:18;3.25;;;2.40;;
10939;SDS011;5522;42.696;23.494;2023-09-07T06:34:45;11.60;;;2.70;;
10939;SDS011;5522;42.696;23.494;2023-09-07T06:37:12;2.15;;;2.03;;
10939;SDS011;5522;42.696;23.494;2023-09-07T06:39:39;4.32;;;2.88;;
10939;SDS011;5522;42.696;23.494;2023-09-07T06:42:08;2.75;;;2.42;;
10939;SDS011;5522;42.696;23.494;2023-09-07T06:44:35;2.78;;;2.33;;
10939;SDS011;5522;42.696;23.494;2023-09-07T06:47:03;2.90;;;2.80;;
10939;SDS011;5522;42.696;23.494;2023-09-07T06:49:30;3.58;;;2.35;;
10939;SDS011;5522;42.696;23.494;2023-09-07T06:51:57;3.05;;;2.33;;
10939;SDS011;5522;42.696;23.494;2023-09-07T06:54:24;4.50;;;2.20;;
10939;SDS011;5522;42.696;23.494;2023-09-07T06:56:51;3.15;;;2.95;;
10939;SDS011;5522;42.696;23.494;2023-09-07T06:59:18;3.42;;;2.42;;
10939;SDS011;5522;42.696;23.494;2023-09-07T07:01:44;3.20;;;2.55;;
10939;SDS011;5522;42.696;23.494;2023-09-07T07:04:12;4.47;;;4.03;;
10939;SDS011;5522;42.696;23.494;2023-09-07T07:06:39;3.28;;;3.08;;
10939;SDS011;5522;42.696;23.494;2023-09-07T07:09:06;2.65;;;2.45;;
10939;SDS011;5522;42.696;23.494;2023-09-07T07:11:34;3.90;;;3.60;;
10939;SDS011;5522;42.696;23.494;2023-09-07T07:14:01;3.67;;;3.38;;
10939;SDS011;5522;42.696;23.494;2023-09-07T07:16:27;4.15;;;3.85;;
10939;SDS011;5522;42.696;23.494;2023-09-07T07:18:54;8.20;;;3.25;;
10939;SDS011;5522;42.696;23.494;2023-09-07T07:21:22;13.98;;;4.05;;
10939;SDS011;5522;42.696;23.494;2023-09-07T07:23:49;6.78;;;3.95;;
10939;SDS011;5522;42.696;23.494;2023-09-07T07:26:16;3.53;;;3.22;;
10939;SDS011;5522;42.696;23.494;2023-09-07T07:28:43;4.10;;;3.70;;
10939;SDS011;5522;42.696;23.494;2023-09-07T07:31:10;3.78;;;3.35;;
10939;SDS011;5522;42.696;23.494;2023-09-07T07:33:37;7.15;;;3.60;;
10939;SDS011;5522;42.696;23.494;2023-09-07T07:36:04;4.07;;;3.70;;
10939;SDS011;5522;42.696;23.494;2023-09-07T07:38:32;4.75;;;3.03;;
10939;SDS011;5522;42.696;23.494;2023-09-07T07:41:00;4.40;;;2.55;;
10939;SDS011;5522;42.696;23.494;2023-09-07T07:43:28;3.38;;;2.05;;
10939;SDS011;5522;42.696;23.494;2023-09-07T07:45:55;1.08;;;1.05;;
10939;SDS011;5522;42.696;23.494;2023-09-07T07:48:22;2.42;;;1.05;;
10939;SDS011;5522;42.696;23.494;2023-09-07T07:50:49;4.25;;;0.88;;
10939;SDS011;5522;42.696;23.494;2023-09-07T07:53:16;1.50;;;1.00;;
10939;SDS011;5522;42.696;23.494;2023-09-07T07:55:44;0.82;;;0.80;;
10939;SDS011;5522;42.696;23.494;2023-09-07T07:58:11;1.95;;;1.05;;
10939;SDS011;5522;42.696;23.494;2023-09-07T08:00:38;2.05;;;1.13;;
10939;SDS011;5522;42.696;23.494;2023-09-07T08:03:06;2.70;;;0.90;;
10939;SDS011;5522;42.696;23.494;2023-09-07T08:05:34;1.17;;;0.98;;
10939;SDS011;5522;42.696;23.494;2023-09-07T08:08:01;2.85;;;0.80;;
10939;SDS011;5522;42.696;23.494;2023-09-07T08:10:28;1.95;;;1.13;;
10939;SDS011;5522;42.696;23.494;2023-09-07T08:12:56;1.20;;;0.90;;
10939;SDS011;5522;42.696;23.494;2023-09-07T08:15:23;1.00;;;0.95;;
10939;SDS011;5522;42.696;23.494;2023-09-07T08:17:50;1.40;;;1.00;;
10939;SDS011;5522;42.696;23.494;2023-09-07T08:20:17;3.70;;;1.25;;
10939;SDS011;5522;42.696;23.494;2023-09-07T08:22:44;1.40;;;1.13;;
10939;SDS011;5522;42.696;23.494;2023-09-07T08:25:11;1.20;;;1.10;;
10939;SDS011;5522;42.696;23.494;2023-09-07T08:27:39;2.75;;;0.93;;
10939;SDS011;5522;42.696;23.494;2023-09-07T08:30:13;1.45;;;1.30;;
10939;SDS011;5522;42.696;23.494;2023-09-07T08:32:42;2.22;;;1.10;;
10939;SDS011;5522;42.696;23.494;2023-09-07T08:35:09;2.78;;;1.00;;
10939;SDS011;5522;42.696;23.494;2023-09-07T08:37:38;3.15;;;1.13;;
10939;SDS011;5522;42.696;23.494;2023-09-07T08:40:05;3.33;;;0.80;;
10939;SDS011;5522;42.696;23.494;2023-09-07T08:42:34;0.98;;;0.98;;
10939;SDS011;5522;42.696;23.494;2023-09-07T08:45:02;2.65;;;1.10;;
10939;SDS011;5522;42.696;23.494;2023-09-07T08:47:33;2.03;;;0.90;;
10939;SDS011;5522;42.696;23.494;2023-09-07T08:50:01;2.35;;;1.15;;
10939;SDS011;5522;42.696;23.494;2023-09-07T08:52:28;1.98;;;0.90;;
10939;SDS011;5522;42.696;23.494;2023-09-07T08:54:56;3.00;;;0.93;;
10939;SDS011;5522;42.696;23.494;2023-09-07T08:57:26;2.72;;;1.33;;
10939;SDS011;5522;42.696;23.494;2023-09-07T08:59:53;0.80;;;0.80;;
10939;SDS011;5522;42.696;23.494;2023-09-07T09:02:20;0.95;;;0.70;;
10939;SDS011;5522;42.696;23.494;2023-09-07T09:04:48;1.05;;;0.95;;
10939;SDS011;5522;42.696;23.494;2023-09-07T09:07:15;3.65;;;0.90;;
10939;SDS011;5522;42.696;23.494;2023-09-07T09:09:42;2.30;;;0.80;;
10939;SDS011;5522;42.696;23.494;2023-09-07T09:12:09;1.55;;;0.95;;
10939;SDS011;5522;42.696;23.494;2023-09-07T09:14:37;1.20;;;1.05;;
10939;SDS011;5522;42.696;23.494;2023-09-07T09:17:05;3.92;;;0.90;;
10939;SDS011;5522;42.696;23.494;2023-09-07T09:19:32;0.90;;;0.90;;
10939;SDS011;5522;42.696;23.494;2023-09-07T09:22:01;3.85;;;0.90;;
10939;SDS011;5522;42.696;23.494;2023-09-07T09:24:31;1.35;;;1.10;;
10939;SDS011;5522;42.696;23.494;2023-09-07T09:26:58;3.97;;;1.13;;
10939;SDS011;5522;42.696;23.494;2023-09-07T09:29:25;2.20;;;1.08;;
10939;SDS011;5522;42.696;23.494;2023-09-07T09:31:52;2.17;;;0.80;;
10939;SDS011;5522;42.696;23.494;2023-09-07T09:34:20;1.30;;;1.15;;
10939;SDS011;5522;42.696;23.494;2023-09-07T09:36:47;2.05;;;0.98;;
10939;SDS011;5522;42.696;23.494;2023-09-07T09:39:22;2.67;;;1.00;;
10939;SDS011;5522;42.696;23.494;2023-09-07T09:41:50;3.65;;;0.80;;
10939;SDS011;5522;42.696;23.494;2023-09-07T09:44:17;3.17;;;0.88;;
10939;SDS011;5522;42.696;23.494;2023-09-07T09:46:47;0.88;;;0.88;;
10939;SDS011;5522;42.696;23.494;2023-09-07T09:49:15;2.80;;;1.10;;
10939;SDS011;5522;42.696;23.494;2023-09-07T09:51:44;2.15;;;0.90;;
10939;SDS011;5522;42.696;23.494;2023-09-07T09:54:14;2.95;;;0.80;;
10939;SDS011;5522;42.696;23.494;2023-09-07T09:56:44;1.25;;;0.88;;
10939;SDS011;5522;42.696;23.494;2023-09-07T09:59:11;1.77;;;0.90;;
10939;SDS011;5522;42.696;23.494;2023-09-07T10:01:43;0.70;;;0.70;;
10939;SDS011;5522;42.696;23.494;2023-09-07T10:04:12;2.05;;;1.08;;
10939;SDS011;5522;42.696;23.494;2023-09-07T10:06:49;3.05;;;0.93;;
10939;SDS011;5522;42.696;23.494;2023-09-07T10:09:19;0.75;;;0.75;;
10939;SDS011;5522;42.696;23.494;2023-09-07T10:11:52;2.92;;;0.95;;
10939;SDS011;5522;42.696;23.494;2023-09-07T10:14:20;0.98;;;0.90;;
10939;SDS011;5522;42.696;23.494;2023-09-07T10:16:47;3.67;;;1.00;;
10939;SDS011;5522;42.696;23.494;2023-09-07T10:19:17;1.05;;;0.90;;
10939;SDS011;5522;42.696;23.494;2023-09-07T10:21:46;1.75;;;1.60;;
10939;SDS011;5522;42.696;23.494;2023-09-07T10:24:23;1.27;;;1.00;;
10939;SDS011;5522;42.696;23.494;2023-09-07T10:26:59;2.35;;;1.33;;
10939;SDS011;5522;42.696;23.494;2023-09-07T10:29:26;2.25;;;1.38;;
10939;SDS011;5522;42.696;23.494;2023-09-07T10:31:54;1.33;;;1.20;;
10939;SDS011;5522;42.696;23.494;2023-09-07T10:34:21;2.40;;;1.02;;
10939;SDS011;5522;42.696;23.494;2023-09-07T10:36:55;0.90;;;0.90;;
10939;SDS011;5522;42.696;23.494;2023-09-07T10:39:22;2.10;;;1.15;;
10939;SDS011;5522;42.696;23.494;2023-09-07T10:41:49;4.28;;;0.98;;
10939;SDS011;5522;42.696;23.494;2023-09-07T10:44:17;1.85;;;1.00;;
10939;SDS011;5522;42.696;23.494;2023-09-07T10:46:51;1.17;;;1.17;;
10939;SDS011;5522;42.696;23.494;2023-09-07T10:49:18;4.72;;;0.88;;
10939;SDS011;5522;42.696;23.494;2023-09-07T10:51:45;1.02;;;0.98;;
10939;SDS011;5522;42.696;23.494;2023-09-07T10:54:13;4.55;;;1.00;;
10939;SDS011;5522;42.696;23.494;2023-09-07T10:56:43;1.30;;;0.70;;
10939;SDS011;5522;42.696;23.494;2023-09-07T10:59:11;1.50;;;0.85;;
10939;SDS011;5522;42.696;23.494;2023-09-07T11:01:39;3.80;;;0.90;;
10939;SDS011;5522;42.696;23.494;2023-09-07T11:04:06;1.17;;;0.85;;
10939;SDS011;5522;42.696;23.494;2023-09-07T11:06:36;2.53;;;0.70;;
10939;SDS011;5522;42.696;23.494;2023-09-07T11:09:03;4.38;;;1.20;;
10939;SDS011;5522;42.696;23.494;2023-09-07T11:11:34;5.80;;;1.00;;
10939;SDS011;5522;42.696;23.494;2023-09-07T11:14:01;2.15;;;0.90;;
10939;SDS011;5522;42.696;23.494;2023-09-07T11:16:28;0.85;;;0.73;;
10939;SDS011;5522;42.696;23.494;2023-09-07T11:18:57;1.50;;;0.90;;
10939;SDS011;5522;42.696;23.494;2023-09-07T11:21:29;1.73;;;1.02;;
10939;SDS011;5522;42.696;23.494;2023-09-07T11:23:57;3.00;;;1.20;;
10939;SDS011;5522;42.696;23.494;2023-09-07T11:26:24;2.13;;;0.90;;
10939;SDS011;5522;42.696;23.494;2023-09-07T11:28:51;1.05;;;0.70;;
10939;SDS011;5522;42.696;23.494;2023-09-07T11:31:18;5.03;;;0.60;;
10939;SDS011;5522;42.696;23.494;2023-09-07T11:33:47;1.52;;;0.95;;
10939;SDS011;5522;42.696;23.494;2023-09-07T11:36:15;0.70;;;0.70;;
10939;SDS011;5522;42.696;23.494;2023-09-07T11:38:43;1.48;;;0.60;;
10939;SDS011;5522;42.696;23.494;2023-09-07T11:41:11;0.60;;;0.60;;
10939;SDS011;5522;42.696;23.494;2023-09-07T11:43:37;1.48;;;0.70;;
10939;SDS011;5522;42.696;23.494;2023-09-07T11:46:05;2.42;;;0.50;;
10939;SDS011;5522;42.696;23.494;2023-09-07T11:48:32;2.08;;;0.70;;
10939;SDS011;5522;42.696;23.494;2023-09-07T11:50:59;1.40;;;0.50;;
10939;SDS011;5522;42.696;23.494;2023-09-07T11:53:28;1.23;;;0.68;;
10939;SDS011;5522;42.696;23.494;2023-09-07T11:55:55;0.50;;;0.50;;
10939;SDS011;5522;42.696;23.494;2023-09-07T11:58:23;1.52;;;0.60;;
10939;SDS011;5522;42.696;23.494;2023-09-07T12:00:51;0.50;;;0.50;;
10939;SDS011;5522;42.696;23.494;2023-09-07T12:03:19;0.68;;;0.60;;
10939;SDS011;5522;42.696;23.494;2023-09-07T12:05:46;3.78;;;0.52;;
10939;SDS011;5522;42.696;23.494;2023-09-07T12:08:13;3.63;;;0.60;;
10939;SDS011;5522;42.696;23.494;2023-09-07T12:10:41;2.22;;;0.60;;
10939;SDS011;5522;42.696;23.494;2023-09-07T12:13:08;2.42;;;0.60;;
10939;SDS011;5522;42.696;23.494;2023-09-07T12:15:35;1.48;;;0.50;;
10939;SDS011;5522;42.696;23.494;2023-09-07T12:18:02;0.65;;;0.45;;
10939;SDS011;5522;42.696;23.494;2023-09-07T12:20:29;2.83;;;0.70;;
10939;SDS011;5522;42.696;23.494;2023-09-07T12:22:56;3.75;;;0.60;;
10939;SDS011;5522;42.696;23.494;2023-09-07T12:25:22;4.18;;;0.50;;
10939;SDS011;5522;42.696;23.494;2023-09-07T12:27:51;1.48;;;0.52;;
10939;SDS011;5522;42.696;23.494;2023-09-07T12:30:18;1.48;;;0.88;;
10939;SDS011;5522;42.696;23.494;2023-09-07T12:32:46;2.80;;;0.90;;
10939;SDS011;5522;42.696;23.494;2023-09-07T12:35:12;0.75;;;0.63;;
10939;SDS011;5522;42.696;23.494;2023-09-07T12:37:40;2.67;;;0.60;;
10939;SDS011;5522;42.696;23.494;2023-09-07T12:40:07;2.38;;;0.60;;
10939;SDS011;5522;42.696;23.494;2023-09-07T12:42:38;0.50;;;0.50;;
10939;SDS011;5522;42.696;23.494;2023-09-07T12:45:08;4.03;;;0.90;;
10939;SDS011;5522;42.696;23.494;2023-09-07T12:47:35;1.10;;;0.82;;
10939;SDS011;5522;42.696;23.494;2023-09-07T12:50:03;0.60;;;0.60;;
10939;SDS011;5522;42.696;23.494;2023-09-07T12:52:30;2.45;;;0.70;;
10939;SDS011;5522;42.696;23.494;2023-09-07T12:54:57;2.10;;;0.60;;
10939;SDS011;5522;42.696;23.494;2023-09-07T12:57:24;0.90;;;0.50;;
10939;SDS011;5522;42.696;23.494;2023-09-07T12:59:51;3.00;;;0.50;;
10939;SDS011;5522;42.696;23.494;2023-09-07T13:02:19;1.08;;;0.70;;
10939;SDS011;5522;42.696;23.494;2023-09-07T13:04:46;1.45;;;0.65;;
10939;SDS011;5522;42.696;23.494;2023-09-07T13:07:13;2.90;;;0.77;;
10939;SDS011;5522;42.696;23.494;2023-09-07T13:09:42;0.70;;;0.70;;
10939;SDS011;5522;42.696;23.494;2023-09-07T13:12:09;3.58;;;0.93;;
10939;SDS011;5522;42.696;23.494;2023-09-07T13:14:36;1.30;;;0.60;;
10939;SDS011;5522;42.696;23.494;2023-09-07T13:17:03;0.82;;;0.60;;
10939;SDS011;5522;42.696;23.494;2023-09-07T13:19:31;3.00;;;0.60;;
10939;SDS011;5522;42.696;23.494;2023-09-07T13:21:58;2.63;;;0.63;;
10939;SDS011;5522;42.696;23.494;2023-09-07T13:24:25;1.67;;;0.80;;
10939;SDS011;5522;42.696;23.494;2023-09-07T13:26:52;3.10;;;0.70;;
10939;SDS011;5522;42.696;23.494;2023-09-07T13:29:19;2.15;;;0.70;;
10939;SDS011;5522;42.696;23.494;2023-09-07T13:31:46;1.08;;;0.60;;
10939;SDS011;5522;42.696;23.494;2023-09-07T13:34:13;1.52;;;0.60;;
10939;SDS011;5522;42.696;23.494;2023-09-07T13:36:41;3.65;;;0.85;;
10939;SDS011;5522;42.696;23.494;2023-09-07T13:39:08;2.50;;;0.70;;
10939;SDS011;5522;42.696;23.494;2023-09-07T13:41:35;1.08;;;0.60;;
10939;SDS011;5522;42.696;23.494;2023-09-07T13:58:44;4.15;;;0.77;;
10939;SDS011;5522;42.696;23.494;2023-09-07T14:01:11;1.20;;;0.70;;
10939;SDS011;5522;42.696;23.494;2023-09-07T14:03:38;1.60;;;0.70;;
10939;SDS011;5522;42.696;23.494;2023-09-07T14:06:05;1.20;;;0.77;;
10939;SDS011;5522;42.696;23.494;2023-09-07T14:08:32;3.30;;;0.80;;
10939;SDS011;5522;42.696;23.494;2023-09-07T14:10:59;2.35;;;0.80;;
10939;SDS011;5522;42.696;23.494;2023-09-07T14:13:27;2.72;;;0.60;;
10939;SDS011;5522;42.696;23.494;2023-09-07T14:15:55;2.13;;;0.80;;
10939;SDS011;5522;42.696;23.494;2023-09-07T14:18:21;1.63;;;0.80;;
10939;SDS011;5522;42.696;23.494;2023-09-07T14:20:48;4.25;;;0.73;;
10939;SDS011;5522;42.696;23.494;2023-09-07T14:23:15;4.05;;;0.60;;
10939;SDS011;5522;42.696;23.494;2023-09-07T14:25:42;7.75;;;0.80;;
10939;SDS011;5522;42.696;23.494;2023-09-07T14:28:10;0.90;;;0.70;;
10939;SDS011;5522;42.696;23.494;2023-09-07T14:30:37;0.77;;;0.70;;
10939;SDS011;5522;42.696;23.494;2023-09-07T14:33:05;3.17;;;0.80;;
10939;SDS011;5522;42.696;23.494;2023-09-07T14:35:32;1.40;;;0.70;;
10939;SDS011;5522;42.696;23.494;2023-09-07T14:37:59;3.45;;;1.10;;
10939;SDS011;5522;42.696;23.494;2023-09-07T14:40:27;0.60;;;0.60;;
10939;SDS011;5522;42.696;23.494;2023-09-07T14:43:03;3.90;;;0.82;;
10939;SDS011;5522;42.696;23.494;2023-09-07T14:45:33;1.95;;;0.82;;
10939;SDS011;5522;42.696;23.494;2023-09-07T14:48:22;1.10;;;0.70;;
10939;SDS011;5522;42.696;23.494;2023-09-07T14:50:49;3.65;;;0.85;;
10939;SDS011;5522;42.696;23.494;2023-09-07T14:53:15;0.70;;;0.70;;
10939;SDS011;5522;42.696;23.494;2023-09-07T14:55:43;0.65;;;0.65;;
10939;SDS011;5522;42.696;23.494;2023-09-07T14:58:10;1.30;;;0.88;;
10939;SDS011;5522;42.696;23.494;2023-09-07T15:00:37;2.70;;;0.85;;
10939;SDS011;5522;42.696;23.494;2023-09-07T15:03:04;1.77;;;0.70;;
10939;SDS011;5522;42.696;23.494;2023-09-07T15:05:32;3.33;;;0.90;;
10939;SDS011;5522;42.696;23.494;2023-09-07T15:07:59;1.70;;;0.82;;
10939;SDS011;5522;42.696;23.494;2023-09-07T15:10:28;2.45;;;0.80;;
10939;SDS011;5522;42.696;23.494;2023-09-07T15:12:54;1.67;;;0.60;;